sensor_id;sensor_type;location;lat;lon;timestamp;P1;durP1;ratioP1;P2;durP2;ratioP2
11098;SDS011;12223;42.650;23.364;2022-08-19T00:01:39;26.48;;;25.08;;
11098;SDS011;12223;42.650;23.364;2022-08-19T00:04:08;19.65;;;18.42;;
11098;SDS011;12223;42.650;23.364;2022-08-19T00:06:37;59.03;;;56.28;;
11098;SDS011;12223;42.650;23.364;2022-08-19T00:09:09;39.28;;;37.22;;
11098;SDS011;12223;42.650;23.364;2022-08-19T00:11:37;28.60;;;27.02;;
11098;SDS011;12223;42.650;23.364;2022-08-19T00:14:05;51.90;;;49.17;;
11098;SDS011;12223;42.650;23.364;2022-08-19T00:16:34;41.65;;;39.55;;
11098;SDS011;12223;42.650;23.364;2022-08-19T00:19:01;41.72;;;39.15;;
11098;SDS011;12223;42.650;23.364;2022-08-19T00:21:28;34.83;;;32.70;;
11098;SDS011;12223;42.650;23.364;2022-08-19T00:23:55;35.80;;;33.83;;
11098;SDS011;12223;42.650;23.364;2022-08-19T00:26:24;36.83;;;34.65;;
11098;SDS011;12223;42.650;23.364;2022-08-19T00:28:52;37.83;;;35.97;;
11098;SDS011;12223;42.650;23.364;2022-08-19T00:31:18;40.08;;;38.08;;
11098;SDS011;12223;42.650;23.364;2022-08-19T00:33:45;20.80;;;19.50;;
11098;SDS011;12223;42.650;23.364;2022-08-19T00:36:12;54.45;;;51.80;;
11098;SDS011;12223;42.650;23.364;2022-08-19T00:38:39;48.63;;;45.88;;
11098;SDS011;12223;42.650;23.364;2022-08-19T00:41:08;52.47;;;50.03;;
11098;SDS011;12223;42.650;23.364;2022-08-19T00:43:37;26.85;;;25.17;;
11098;SDS011;12223;42.650;23.364;2022-08-19T00:46:05;45.35;;;42.75;;
11098;SDS011;12223;42.650;23.364;2022-08-19T00:48:32;34.90;;;33.03;;
11098;SDS011;12223;42.650;23.364;2022-08-19T00:50:59;21.35;;;19.95;;
11098;SDS011;12223;42.650;23.364;2022-08-19T00:53:27;35.97;;;33.83;;
11098;SDS011;12223;42.650;23.364;2022-08-19T00:55:56;43.00;;;40.92;;
11098;SDS011;12223;42.650;23.364;2022-08-19T00:58:26;70.95;;;67.80;;
11098;SDS011;12223;42.650;23.364;2022-08-19T01:00:56;21.45;;;20.08;;
11098;SDS011;12223;42.650;23.364;2022-08-19T01:03:22;24.38;;;22.70;;
11098;SDS011;12223;42.650;23.364;2022-08-19T01:05:50;36.15;;;34.15;;
11098;SDS011;12223;42.650;23.364;2022-08-19T01:08:20;36.47;;;34.58;;
11098;SDS011;12223;42.650;23.364;2022-08-19T01:10:48;53.60;;;51.13;;
11098;SDS011;12223;42.650;23.364;2022-08-19T01:13:19;50.35;;;47.92;;
11098;SDS011;12223;42.650;23.364;2022-08-19T01:15:50;37.15;;;35.13;;
11098;SDS011;12223;42.650;23.364;2022-08-19T01:18:21;33.80;;;32.15;;
11098;SDS011;12223;42.650;23.364;2022-08-19T01:20:48;32.65;;;30.80;;
11098;SDS011;12223;42.650;23.364;2022-08-19T01:23:16;32.83;;;31.15;;
11098;SDS011;12223;42.650;23.364;2022-08-19T01:25:45;35.85;;;33.88;;
11098;SDS011;12223;42.650;23.364;2022-08-19T01:28:16;44.30;;;42.03;;
11098;SDS011;12223;42.650;23.364;2022-08-19T01:30:46;42.42;;;40.25;;
11098;SDS011;12223;42.650;23.364;2022-08-19T01:33:13;29.02;;;27.30;;
11098;SDS011;12223;42.650;23.364;2022-08-19T01:35:41;39.13;;;36.85;;
11098;SDS011;12223;42.650;23.364;2022-08-19T01:38:09;40.30;;;38.33;;
11098;SDS011;12223;42.650;23.364;2022-08-19T01:40:46;55.78;;;53.20;;
11098;SDS011;12223;42.650;23.364;2022-08-19T01:43:13;62.40;;;59.63;;
11098;SDS011;12223;42.650;23.364;2022-08-19T01:45:40;20.15;;;18.88;;
11098;SDS011;12223;42.650;23.364;2022-08-19T01:48:07;23.17;;;21.42;;
11098;SDS011;12223;42.650;23.364;2022-08-19T01:50:34;18.25;;;16.95;;
11098;SDS011;12223;42.650;23.364;2022-08-19T01:53:02;22.73;;;20.98;;
11098;SDS011;12223;42.650;23.364;2022-08-19T01:55:31;22.75;;;21.17;;
11098;SDS011;12223;42.650;23.364;2022-08-19T01:58:00;44.28;;;41.88;;
11098;SDS011;12223;42.650;23.364;2022-08-19T02:00:31;45.08;;;42.67;;
11098;SDS011;12223;42.650;23.364;2022-08-19T02:02:58;55.63;;;52.58;;
11098;SDS011;12223;42.650;23.364;2022-08-19T02:05:26;59.78;;;56.72;;
11098;SDS011;12223;42.650;23.364;2022-08-19T02:07:54;91.85;;;87.72;;
11098;SDS011;12223;42.650;23.364;2022-08-19T02:10:21;55.58;;;52.72;;
11098;SDS011;12223;42.650;23.364;2022-08-19T02:12:49;86.32;;;82.53;;
11098;SDS011;12223;42.650;23.364;2022-08-19T02:15:17;168.98;;;161.82;;
11098;SDS011;12223;42.650;23.364;2022-08-19T02:17:45;206.90;;;197.30;;
11098;SDS011;12223;42.650;23.364;2022-08-19T02:20:12;170.68;;;162.88;;
11098;SDS011;12223;42.650;23.364;2022-08-19T02:22:39;164.80;;;157.18;;
11098;SDS011;12223;42.650;23.364;2022-08-19T02:25:08;103.85;;;99.38;;
11098;SDS011;12223;42.650;23.364;2022-08-19T02:27:35;167.90;;;160.85;;
11098;SDS011;12223;42.650;23.364;2022-08-19T02:30:03;223.18;;;212.90;;
11098;SDS011;12223;42.650;23.364;2022-08-19T02:32:32;43.92;;;41.65;;
11098;SDS011;12223;42.650;23.364;2022-08-19T02:34:59;185.32;;;177.68;;
11098;SDS011;12223;42.650;23.364;2022-08-19T02:37:25;227.75;;;217.50;;
11098;SDS011;12223;42.650;23.364;2022-08-19T02:40:11;126.18;;;120.90;;
11098;SDS011;12223;42.650;23.364;2022-08-19T02:42:38;222.45;;;212.95;;
11098;SDS011;12223;42.650;23.364;2022-08-19T02:45:06;152.50;;;146.43;;
11098;SDS011;12223;42.650;23.364;2022-08-19T02:47:35;110.03;;;105.47;;
11098;SDS011;12223;42.650;23.364;2022-08-19T02:50:03;150.05;;;144.02;;
11098;SDS011;12223;42.650;23.364;2022-08-19T02:52:31;153.75;;;146.82;;
11098;SDS011;12223;42.650;23.364;2022-08-19T02:54:58;162.55;;;154.82;;
11098;SDS011;12223;42.650;23.364;2022-08-19T02:57:26;82.25;;;78.63;;
11098;SDS011;12223;42.650;23.364;2022-08-19T02:59:53;84.50;;;80.80;;
11098;SDS011;12223;42.650;23.364;2022-08-19T03:02:20;112.20;;;107.35;;
11098;SDS011;12223;42.650;23.364;2022-08-19T03:04:48;143.52;;;137.57;;
11098;SDS011;12223;42.650;23.364;2022-08-19T03:07:16;138.80;;;132.95;;
11098;SDS011;12223;42.650;23.364;2022-08-19T03:09:44;102.22;;;97.82;;
11098;SDS011;12223;42.650;23.364;2022-08-19T03:12:11;69.53;;;66.00;;
11098;SDS011;12223;42.650;23.364;2022-08-19T03:14:38;79.75;;;76.30;;
11098;SDS011;12223;42.650;23.364;2022-08-19T03:17:05;120.90;;;115.35;;
11098;SDS011;12223;42.650;23.364;2022-08-19T03:19:32;122.43;;;117.00;;
11098;SDS011;12223;42.650;23.364;2022-08-19T03:22:00;129.57;;;124.43;;
11098;SDS011;12223;42.650;23.364;2022-08-19T03:24:29;121.70;;;116.47;;
11098;SDS011;12223;42.650;23.364;2022-08-19T03:26:56;134.88;;;129.20;;
11098;SDS011;12223;42.650;23.364;2022-08-19T03:29:24;145.23;;;138.82;;
11098;SDS011;12223;42.650;23.364;2022-08-19T03:31:51;156.68;;;150.38;;
11098;SDS011;12223;42.650;23.364;2022-08-19T03:34:20;221.45;;;212.20;;
11098;SDS011;12223;42.650;23.364;2022-08-19T03:36:51;185.98;;;177.43;;
11098;SDS011;12223;42.650;23.364;2022-08-19T03:39:20;229.90;;;217.60;;
11098;SDS011;12223;42.650;23.364;2022-08-19T03:41:48;98.40;;;93.70;;
11098;SDS011;12223;42.650;23.364;2022-08-19T03:44:18;209.23;;;200.57;;
11098;SDS011;12223;42.650;23.364;2022-08-19T03:46:47;265.38;;;254.40;;
11098;SDS011;12223;42.650;23.364;2022-08-19T03:49:15;214.05;;;204.23;;
11098;SDS011;12223;42.650;23.364;2022-08-19T03:51:43;131.10;;;125.05;;
11098;SDS011;12223;42.650;23.364;2022-08-19T03:54:11;86.80;;;82.95;;
11098;SDS011;12223;42.650;23.364;2022-08-19T03:56:42;25.83;;;24.02;;
11098;SDS011;12223;42.650;23.364;2022-08-19T03:59:13;46.50;;;44.17;;
11098;SDS011;12223;42.650;23.364;2022-08-19T04:01:42;326.80;;;312.95;;
11098;SDS011;12223;42.650;23.364;2022-08-19T04:04:09;58.42;;;55.40;;
11098;SDS011;12223;42.650;23.364;2022-08-19T04:06:37;28.02;;;26.08;;
11098;SDS011;12223;42.650;23.364;2022-08-19T04:09:06;13.32;;;12.10;;
11098;SDS011;12223;42.650;23.364;2022-08-19T04:11:36;28.42;;;26.45;;
11098;SDS011;12223;42.650;23.364;2022-08-19T04:14:08;16.92;;;15.35;;
11098;SDS011;12223;42.650;23.364;2022-08-19T04:16:36;12.50;;;11.30;;
11098;SDS011;12223;42.650;23.364;2022-08-19T04:19:04;15.23;;;13.18;;
11098;SDS011;12223;42.650;23.364;2022-08-19T04:21:31;12.82;;;11.50;;
11098;SDS011;12223;42.650;23.364;2022-08-19T04:23:59;18.85;;;17.50;;
11098;SDS011;12223;42.650;23.364;2022-08-19T04:26:26;24.23;;;22.58;;
11098;SDS011;12223;42.650;23.364;2022-08-19T04:28:57;12.85;;;11.63;;
11098;SDS011;12223;42.650;23.364;2022-08-19T04:31:26;16.25;;;10.75;;
11098;SDS011;12223;42.650;23.364;2022-08-19T04:33:55;12.35;;;11.02;;
11098;SDS011;12223;42.650;23.364;2022-08-19T04:36:23;16.10;;;11.98;;
11098;SDS011;12223;42.650;23.364;2022-08-19T04:38:55;13.98;;;9.63;;
11098;SDS011;12223;42.650;23.364;2022-08-19T04:41:23;12.55;;;10.80;;
11098;SDS011;12223;42.650;23.364;2022-08-19T04:44:19;12.23;;;10.18;;
11098;SDS011;12223;42.650;23.364;2022-08-19T04:46:48;19.20;;;11.40;;
11098;SDS011;12223;42.650;23.364;2022-08-19T04:49:17;21.90;;;12.95;;
11098;SDS011;12223;42.650;23.364;2022-08-19T04:51:46;35.78;;;12.80;;
11098;SDS011;12223;42.650;23.364;2022-08-19T04:54:14;21.92;;;11.95;;
11098;SDS011;12223;42.650;23.364;2022-08-19T04:56:41;17.67;;;12.02;;
11098;SDS011;12223;42.650;23.364;2022-08-19T04:59:09;29.67;;;27.17;;
11098;SDS011;12223;42.650;23.364;2022-08-19T05:01:36;12.70;;;9.98;;
11098;SDS011;12223;42.650;23.364;2022-08-19T05:04:05;14.10;;;10.35;;
11098;SDS011;12223;42.650;23.364;2022-08-19T05:06:33;10.70;;;9.90;;
11098;SDS011;12223;42.650;23.364;2022-08-19T05:09:02;12.43;;;11.15;;
11098;SDS011;12223;42.650;23.364;2022-08-19T05:11:31;11.75;;;10.65;;
11098;SDS011;12223;42.650;23.364;2022-08-19T05:13:59;14.02;;;9.93;;
11098;SDS011;12223;42.650;23.364;2022-08-19T05:16:26;13.63;;;12.38;;
11098;SDS011;12223;42.650;23.364;2022-08-19T05:18:54;11.25;;;10.15;;
11098;SDS011;12223;42.650;23.364;2022-08-19T05:21:40;12.20;;;9.20;;
11098;SDS011;12223;42.650;23.364;2022-08-19T05:24:26;11.13;;;10.07;;
11098;SDS011;12223;42.650;23.364;2022-08-19T05:26:54;14.25;;;12.02;;
11098;SDS011;12223;42.650;23.364;2022-08-19T05:29:23;12.40;;;11.30;;
11098;SDS011;12223;42.650;23.364;2022-08-19T05:31:53;18.52;;;11.80;;
11098;SDS011;12223;42.650;23.364;2022-08-19T05:34:21;27.10;;;14.40;;
11098;SDS011;12223;42.650;23.364;2022-08-19T05:36:51;11.82;;;10.70;;
11098;SDS011;12223;42.650;23.364;2022-08-19T05:39:22;31.27;;;17.20;;
11098;SDS011;12223;42.650;23.364;2022-08-19T05:41:52;11.98;;;10.73;;
11098;SDS011;12223;42.650;23.364;2022-08-19T05:44:22;14.23;;;10.95;;
11098;SDS011;12223;42.650;23.364;2022-08-19T05:46:49;16.92;;;14.43;;
11098;SDS011;12223;42.650;23.364;2022-08-19T05:49:19;12.85;;;11.02;;
11098;SDS011;12223;42.650;23.364;2022-08-19T05:51:47;15.93;;;14.32;;
11098;SDS011;12223;42.650;23.364;2022-08-19T05:54:15;13.32;;;11.98;;
11098;SDS011;12223;42.650;23.364;2022-08-19T05:56:43;14.98;;;13.55;;
11098;SDS011;12223;42.650;23.364;2022-08-19T05:59:13;12.63;;;11.38;;
11098;SDS011;12223;42.650;23.364;2022-08-19T06:05:02;14.68;;;11.60;;
11098;SDS011;12223;42.650;23.364;2022-08-19T06:07:31;14.95;;;12.63;;
11098;SDS011;12223;42.650;23.364;2022-08-19T06:09:59;33.13;;;31.05;;
11098;SDS011;12223;42.650;23.364;2022-08-19T06:12:25;15.45;;;14.00;;
11098;SDS011;12223;42.650;23.364;2022-08-19T06:14:55;23.42;;;21.48;;
11098;SDS011;12223;42.650;23.364;2022-08-19T06:17:22;11.95;;;10.73;;
11098;SDS011;12223;42.650;23.364;2022-08-19T06:19:50;18.10;;;13.18;;
11098;SDS011;12223;42.650;23.364;2022-08-19T06:22:17;12.10;;;11.00;;
11098;SDS011;12223;42.650;23.364;2022-08-19T06:24:44;15.07;;;13.35;;
11098;SDS011;12223;42.650;23.364;2022-08-19T06:27:12;19.30;;;17.50;;
11098;SDS011;12223;42.650;23.364;2022-08-19T06:29:40;13.32;;;11.90;;
11098;SDS011;12223;42.650;23.364;2022-08-19T06:32:07;68.85;;;65.60;;
11098;SDS011;12223;42.650;23.364;2022-08-19T06:34:34;22.10;;;20.10;;
11098;SDS011;12223;42.650;23.364;2022-08-19T06:37:01;27.55;;;25.73;;
11098;SDS011;12223;42.650;23.364;2022-08-19T06:39:32;18.65;;;17.35;;
11098;SDS011;12223;42.650;23.364;2022-08-19T06:42:01;29.30;;;27.40;;
11098;SDS011;12223;42.650;23.364;2022-08-19T06:44:33;46.90;;;43.97;;
11098;SDS011;12223;42.650;23.364;2022-08-19T06:47:02;30.60;;;28.58;;
11098;SDS011;12223;42.650;23.364;2022-08-19T06:49:30;12.60;;;11.40;;
11098;SDS011;12223;42.650;23.364;2022-08-19T06:51:58;12.38;;;11.20;;
11098;SDS011;12223;42.650;23.364;2022-08-19T06:54:25;13.43;;;12.07;;
11098;SDS011;12223;42.650;23.364;2022-08-19T06:56:53;12.60;;;10.85;;
11098;SDS011;12223;42.650;23.364;2022-08-19T06:59:21;15.13;;;10.65;;
11098;SDS011;12223;42.650;23.364;2022-08-19T07:01:54;13.07;;;11.63;;
11098;SDS011;12223;42.650;23.364;2022-08-19T07:04:24;14.18;;;12.65;;
11098;SDS011;12223;42.650;23.364;2022-08-19T07:06:57;19.50;;;17.50;;
11098;SDS011;12223;42.650;23.364;2022-08-19T07:09:25;13.20;;;11.90;;
11098;SDS011;12223;42.650;23.364;2022-08-19T07:11:53;15.07;;;11.48;;
11098;SDS011;12223;42.650;23.364;2022-08-19T07:14:22;17.33;;;13.75;;
11098;SDS011;12223;42.650;23.364;2022-08-19T07:16:51;19.95;;;17.95;;
11098;SDS011;12223;42.650;23.364;2022-08-19T07:19:22;20.73;;;16.48;;
11098;SDS011;12223;42.650;23.364;2022-08-19T07:21:51;22.55;;;20.58;;
11098;SDS011;12223;42.650;23.364;2022-08-19T07:24:18;26.15;;;24.20;;
11098;SDS011;12223;42.650;23.364;2022-08-19T07:26:49;13.10;;;12.00;;
11098;SDS011;12223;42.650;23.364;2022-08-19T07:29:17;15.40;;;13.82;;
11098;SDS011;12223;42.650;23.364;2022-08-19T07:31:44;23.25;;;21.40;;
11098;SDS011;12223;42.650;23.364;2022-08-19T07:34:12;25.58;;;23.20;;
11098;SDS011;12223;42.650;23.364;2022-08-19T07:36:40;15.02;;;13.50;;
11098;SDS011;12223;42.650;23.364;2022-08-19T07:39:08;13.10;;;11.70;;
11098;SDS011;12223;42.650;23.364;2022-08-19T07:41:36;14.95;;;11.95;;
11098;SDS011;12223;42.650;23.364;2022-08-19T07:44:03;13.38;;;11.98;;
11098;SDS011;12223;42.650;23.364;2022-08-19T07:46:32;14.38;;;12.25;;
11098;SDS011;12223;42.650;23.364;2022-08-19T07:49:00;19.92;;;11.75;;
11098;SDS011;12223;42.650;23.364;2022-08-19T07:51:29;17.02;;;12.75;;
11098;SDS011;12223;42.650;23.364;2022-08-19T07:53:56;14.48;;;12.30;;
11098;SDS011;12223;42.650;23.364;2022-08-19T07:56:23;18.40;;;12.35;;
11098;SDS011;12223;42.650;23.364;2022-08-19T07:58:51;14.90;;;13.60;;
11098;SDS011;12223;42.650;23.364;2022-08-19T08:01:20;15.23;;;13.93;;
11098;SDS011;12223;42.650;23.364;2022-08-19T08:03:49;19.33;;;14.45;;
11098;SDS011;12223;42.650;23.364;2022-08-19T08:06:36;14.45;;;11.35;;
11098;SDS011;12223;42.650;23.364;2022-08-19T08:09:21;13.32;;;11.95;;
11098;SDS011;12223;42.650;23.364;2022-08-19T08:11:50;14.82;;;11.35;;
11098;SDS011;12223;42.650;23.364;2022-08-19T08:14:20;12.70;;;10.70;;
11098;SDS011;12223;42.650;23.364;2022-08-19T08:16:48;13.43;;;11.77;;
11098;SDS011;12223;42.650;23.364;2022-08-19T08:19:17;13.98;;;11.43;;
11098;SDS011;12223;42.650;23.364;2022-08-19T08:21:47;13.48;;;12.07;;
11098;SDS011;12223;42.650;23.364;2022-08-19T08:24:15;21.92;;;11.88;;
11098;SDS011;12223;42.650;23.364;2022-08-19T08:26:42;15.88;;;11.25;;
11098;SDS011;12223;42.650;23.364;2022-08-19T08:29:09;14.45;;;12.15;;
11098;SDS011;12223;42.650;23.364;2022-08-19T08:31:37;17.23;;;12.40;;
11098;SDS011;12223;42.650;23.364;2022-08-19T08:34:05;13.77;;;11.50;;
11098;SDS011;12223;42.650;23.364;2022-08-19T08:36:32;14.63;;;13.13;;
11098;SDS011;12223;42.650;23.364;2022-08-19T08:39:07;16.92;;;15.10;;
11098;SDS011;12223;42.650;23.364;2022-08-19T08:41:34;19.25;;;12.00;;
11098;SDS011;12223;42.650;23.364;2022-08-19T08:44:13;12.40;;;10.98;;
11098;SDS011;12223;42.650;23.364;2022-08-19T08:46:44;14.90;;;11.10;;
11098;SDS011;12223;42.650;23.364;2022-08-19T08:49:18;12.95;;;11.10;;
11098;SDS011;12223;42.650;23.364;2022-08-19T08:51:52;14.10;;;11.65;;
11098;SDS011;12223;42.650;23.364;2022-08-19T08:54:28;12.80;;;10.82;;
11098;SDS011;12223;42.650;23.364;2022-08-19T08:56:59;11.98;;;10.82;;
11098;SDS011;12223;42.650;23.364;2022-08-19T08:59:28;11.77;;;10.35;;
11098;SDS011;12223;42.650;23.364;2022-08-19T09:01:58;9.70;;;8.90;;
11098;SDS011;12223;42.650;23.364;2022-08-19T09:04:25;10.50;;;9.40;;
11098;SDS011;12223;42.650;23.364;2022-08-19T09:06:55;15.48;;;9.77;;
11098;SDS011;12223;42.650;23.364;2022-08-19T09:09:38;11.85;;;10.52;;
11098;SDS011;12223;42.650;23.364;2022-08-19T09:12:09;13.85;;;12.35;;
11098;SDS011;12223;42.650;23.364;2022-08-19T09:14:43;14.90;;;13.60;;
11098;SDS011;12223;42.650;23.364;2022-08-19T09:17:14;13.45;;;12.30;;
11098;SDS011;12223;42.650;23.364;2022-08-19T09:19:52;12.25;;;11.18;;
11098;SDS011;12223;42.650;23.364;2022-08-19T09:22:20;13.07;;;11.73;;
11098;SDS011;12223;42.650;23.364;2022-08-19T09:24:49;11.05;;;10.00;;
11098;SDS011;12223;42.650;23.364;2022-08-19T09:27:17;9.63;;;8.73;;
11098;SDS011;12223;42.650;23.364;2022-08-19T09:29:45;12.43;;;9.30;;
11098;SDS011;12223;42.650;23.364;2022-08-19T09:32:14;12.35;;;10.00;;
11098;SDS011;12223;42.650;23.364;2022-08-19T09:34:40;11.32;;;10.55;;
11098;SDS011;12223;42.650;23.364;2022-08-19T09:37:08;11.23;;;10.02;;
11098;SDS011;12223;42.650;23.364;2022-08-19T09:39:35;11.30;;;10.20;;
11098;SDS011;12223;42.650;23.364;2022-08-19T09:42:04;13.20;;;10.07;;
11098;SDS011;12223;42.650;23.364;2022-08-19T09:44:36;11.52;;;10.55;;
11098;SDS011;12223;42.650;23.364;2022-08-19T09:47:03;10.55;;;9.70;;
11098;SDS011;12223;42.650;23.364;2022-08-19T09:49:30;11.50;;;10.50;;
11098;SDS011;12223;42.650;23.364;2022-08-19T09:51:57;9.75;;;8.90;;
11098;SDS011;12223;42.650;23.364;2022-08-19T09:54:24;9.85;;;8.95;;
11098;SDS011;12223;42.650;23.364;2022-08-19T09:56:51;9.77;;;8.82;;
11098;SDS011;12223;42.650;23.364;2022-08-19T09:59:19;10.55;;;9.60;;
11098;SDS011;12223;42.650;23.364;2022-08-19T10:01:46;11.40;;;10.55;;
11098;SDS011;12223;42.650;23.364;2022-08-19T10:04:13;10.18;;;9.45;;
11098;SDS011;12223;42.650;23.364;2022-08-19T10:06:40;11.32;;;10.40;;
11098;SDS011;12223;42.650;23.364;2022-08-19T10:09:07;11.60;;;10.40;;
11098;SDS011;12223;42.650;23.364;2022-08-19T10:11:36;10.65;;;9.65;;
11098;SDS011;12223;42.650;23.364;2022-08-19T10:14:05;11.15;;;10.18;;
11098;SDS011;12223;42.650;23.364;2022-08-19T10:16:36;9.77;;;8.93;;
11098;SDS011;12223;42.650;23.364;2022-08-19T10:19:04;10.52;;;9.55;;
11098;SDS011;12223;42.650;23.364;2022-08-19T10:21:32;9.18;;;8.38;;
11098;SDS011;12223;42.650;23.364;2022-08-19T10:24:01;9.40;;;8.50;;
11098;SDS011;12223;42.650;23.364;2022-08-19T10:26:31;10.20;;;8.98;;
11098;SDS011;12223;42.650;23.364;2022-08-19T10:29:02;9.85;;;9.00;;
11098;SDS011;12223;42.650;23.364;2022-08-19T10:31:31;10.23;;;9.30;;
11098;SDS011;12223;42.650;23.364;2022-08-19T10:34:00;10.63;;;9.65;;
11098;SDS011;12223;42.650;23.364;2022-08-19T10:36:28;10.38;;;9.48;;
11098;SDS011;12223;42.650;23.364;2022-08-19T10:38:59;9.57;;;8.63;;
11098;SDS011;12223;42.650;23.364;2022-08-19T10:41:29;11.18;;;10.15;;
11098;SDS011;12223;42.650;23.364;2022-08-19T10:43:58;10.02;;;8.93;;
11098;SDS011;12223;42.650;23.364;2022-08-19T10:46:27;9.43;;;8.63;;
11098;SDS011;12223;42.650;23.364;2022-08-19T10:48:57;9.10;;;8.20;;
11098;SDS011;12223;42.650;23.364;2022-08-19T10:51:26;9.43;;;8.55;;
11098;SDS011;12223;42.650;23.364;2022-08-19T10:54:10;9.38;;;8.57;;
11098;SDS011;12223;42.650;23.364;2022-08-19T10:56:37;9.07;;;8.35;;
11098;SDS011;12223;42.650;23.364;2022-08-19T10:59:18;10.70;;;9.32;;
11098;SDS011;12223;42.650;23.364;2022-08-19T11:01:47;9.82;;;8.80;;
11098;SDS011;12223;42.650;23.364;2022-08-19T11:04:15;11.13;;;10.23;;
11098;SDS011;12223;42.650;23.364;2022-08-19T11:06:44;10.60;;;9.57;;
11098;SDS011;12223;42.650;23.364;2022-08-19T11:09:12;10.88;;;9.98;;
11098;SDS011;12223;42.650;23.364;2022-08-19T11:11:40;12.60;;;11.40;;
11098;SDS011;12223;42.650;23.364;2022-08-19T11:14:07;10.18;;;9.35;;
11098;SDS011;12223;42.650;23.364;2022-08-19T11:16:34;9.88;;;8.73;;
11098;SDS011;12223;42.650;23.364;2022-08-19T11:19:03;10.82;;;9.25;;
11098;SDS011;12223;42.650;23.364;2022-08-19T11:21:30;9.70;;;8.82;;
11098;SDS011;12223;42.650;23.364;2022-08-19T11:24:02;11.00;;;8.50;;
11098;SDS011;12223;42.650;23.364;2022-08-19T11:26:31;9.57;;;8.65;;
11098;SDS011;12223;42.650;23.364;2022-08-19T11:28:59;9.65;;;8.88;;
11098;SDS011;12223;42.650;23.364;2022-08-19T11:31:28;11.65;;;8.80;;
11098;SDS011;12223;42.650;23.364;2022-08-19T11:33:56;9.90;;;9.00;;
11098;SDS011;12223;42.650;23.364;2022-08-19T11:36:25;14.10;;;9.23;;
11098;SDS011;12223;42.650;23.364;2022-08-19T11:38:52;11.05;;;9.70;;
11098;SDS011;12223;42.650;23.364;2022-08-19T11:41:22;10.70;;;8.95;;
11098;SDS011;12223;42.650;23.364;2022-08-19T11:43:50;11.73;;;9.80;;
11098;SDS011;12223;42.650;23.364;2022-08-19T11:46:18;17.60;;;11.18;;
11098;SDS011;12223;42.650;23.364;2022-08-19T11:48:45;10.18;;;9.27;;
11098;SDS011;12223;42.650;23.364;2022-08-19T11:51:14;9.95;;;8.93;;
11098;SDS011;12223;42.650;23.364;2022-08-19T11:53:42;10.15;;;9.25;;
11098;SDS011;12223;42.650;23.364;2022-08-19T11:56:09;10.55;;;9.55;;
11098;SDS011;12223;42.650;23.364;2022-08-19T11:58:38;9.90;;;9.13;;
11098;SDS011;12223;42.650;23.364;2022-08-19T12:01:06;11.02;;;9.75;;
11098;SDS011;12223;42.650;23.364;2022-08-19T12:03:33;10.10;;;9.20;;
11098;SDS011;12223;42.650;23.364;2022-08-19T12:06:03;9.57;;;8.88;;
11098;SDS011;12223;42.650;23.364;2022-08-19T12:08:31;10.32;;;9.32;;
11098;SDS011;12223;42.650;23.364;2022-08-19T12:10:57;10.82;;;9.90;;
11098;SDS011;12223;42.650;23.364;2022-08-19T12:13:25;10.27;;;9.45;;
11098;SDS011;12223;42.650;23.364;2022-08-19T12:15:54;10.65;;;9.45;;
11098;SDS011;12223;42.650;23.364;2022-08-19T12:18:21;9.88;;;9.07;;
11098;SDS011;12223;42.650;23.364;2022-08-19T12:20:50;11.63;;;10.57;;
11098;SDS011;12223;42.650;23.364;2022-08-19T12:23:17;11.27;;;10.32;;
11098;SDS011;12223;42.650;23.364;2022-08-19T12:25:45;14.38;;;13.02;;
11098;SDS011;12223;42.650;23.364;2022-08-19T12:28:15;20.42;;;19.05;;
11098;SDS011;12223;42.650;23.364;2022-08-19T12:30:41;20.02;;;18.58;;
11098;SDS011;12223;42.650;23.364;2022-08-19T12:33:10;18.27;;;16.85;;
11098;SDS011;12223;42.650;23.364;2022-08-19T12:35:39;17.33;;;16.25;;
11098;SDS011;12223;42.650;23.364;2022-08-19T12:38:06;16.73;;;15.13;;
11098;SDS011;12223;42.650;23.364;2022-08-19T12:40:33;14.73;;;13.35;;
11098;SDS011;12223;42.650;23.364;2022-08-19T12:43:00;12.75;;;11.90;;
11098;SDS011;12223;42.650;23.364;2022-08-19T12:45:26;13.10;;;11.82;;
11098;SDS011;12223;42.650;23.364;2022-08-19T12:47:53;13.15;;;11.45;;
11098;SDS011;12223;42.650;23.364;2022-08-19T12:50:22;12.45;;;11.45;;
11098;SDS011;12223;42.650;23.364;2022-08-19T12:52:48;11.43;;;10.48;;
11098;SDS011;12223;42.650;23.364;2022-08-19T12:55:15;10.57;;;9.57;;
11098;SDS011;12223;42.650;23.364;2022-08-19T12:57:43;10.05;;;9.10;;
11098;SDS011;12223;42.650;23.364;2022-08-19T13:00:11;9.57;;;8.75;;
11098;SDS011;12223;42.650;23.364;2022-08-19T13:02:41;9.63;;;8.65;;
11098;SDS011;12223;42.650;23.364;2022-08-19T13:05:11;10.77;;;9.50;;
11098;SDS011;12223;42.650;23.364;2022-08-19T13:07:42;9.45;;;8.65;;
11098;SDS011;12223;42.650;23.364;2022-08-19T13:10:11;9.60;;;8.70;;
11098;SDS011;12223;42.650;23.364;2022-08-19T13:12:40;10.98;;;9.68;;
11098;SDS011;12223;42.650;23.364;2022-08-19T13:15:08;11.13;;;9.75;;
11098;SDS011;12223;42.650;23.364;2022-08-19T13:17:35;11.15;;;9.70;;
11098;SDS011;12223;42.650;23.364;2022-08-19T13:20:03;11.98;;;10.88;;
11098;SDS011;12223;42.650;23.364;2022-08-19T13:22:31;11.07;;;10.07;;
11098;SDS011;12223;42.650;23.364;2022-08-19T13:24:59;11.02;;;10.02;;
11098;SDS011;12223;42.650;23.364;2022-08-19T13:27:26;10.55;;;9.48;;
11098;SDS011;12223;42.650;23.364;2022-08-19T13:29:53;10.90;;;9.93;;
11098;SDS011;12223;42.650;23.364;2022-08-19T13:32:48;10.38;;;9.38;;
11098;SDS011;12223;42.650;23.364;2022-08-19T13:35:38;11.88;;;9.48;;
11098;SDS011;12223;42.650;23.364;2022-08-19T13:38:06;10.48;;;9.20;;
11098;SDS011;12223;42.650;23.364;2022-08-19T13:40:35;11.63;;;9.00;;
11098;SDS011;12223;42.650;23.364;2022-08-19T13:43:04;12.68;;;8.98;;
11098;SDS011;12223;42.650;23.364;2022-08-19T13:45:32;10.52;;;9.52;;
11098;SDS011;12223;42.650;23.364;2022-08-19T13:48:00;9.55;;;8.65;;
11098;SDS011;12223;42.650;23.364;2022-08-19T13:50:33;9.77;;;8.88;;
11098;SDS011;12223;42.650;23.364;2022-08-19T13:53:02;11.20;;;10.02;;
11098;SDS011;12223;42.650;23.364;2022-08-19T13:55:29;12.48;;;10.40;;
11098;SDS011;12223;42.650;23.364;2022-08-19T13:57:58;11.75;;;10.63;;
11098;SDS011;12223;42.650;23.364;2022-08-19T14:00:27;11.82;;;10.32;;
11098;SDS011;12223;42.650;23.364;2022-08-19T14:02:56;10.52;;;9.50;;
11098;SDS011;12223;42.650;23.364;2022-08-19T14:05:24;10.80;;;9.80;;
11098;SDS011;12223;42.650;23.364;2022-08-19T14:07:51;11.90;;;10.80;;
11098;SDS011;12223;42.650;23.364;2022-08-19T14:10:19;18.48;;;16.95;;
11098;SDS011;12223;42.650;23.364;2022-08-19T14:12:47;14.88;;;13.68;;
11098;SDS011;12223;42.650;23.364;2022-08-19T14:15:15;17.23;;;15.85;;
11098;SDS011;12223;42.650;23.364;2022-08-19T14:17:43;14.30;;;12.88;;
11098;SDS011;12223;42.650;23.364;2022-08-19T14:20:12;19.60;;;17.48;;
11098;SDS011;12223;42.650;23.364;2022-08-19T14:22:40;29.02;;;27.02;;
11098;SDS011;12223;42.650;23.364;2022-08-19T14:25:09;13.27;;;12.10;;